createdAt,value
2022-11-24T12:12:56.854Z,42.76
2022-11-24T12:16:07.484Z,42.82
2022-11-24T12:19:17.419Z,42.67
2022-11-24T12:22:25.330Z,42.63
2022-11-24T12:25:30.639Z,42.30
2022-11-24T12:28:47.784Z,41.36
2022-11-24T12:31:58.130Z,42.06
2022-11-24T12:35:04.818Z,41.53
2022-11-24T12:38:16.125Z,41.16
2022-11-24T12:41:41.165Z,41.16
2022-11-24T12:44:58.309Z,40.88
2022-11-24T12:48:11.167Z,41.01
2022-11-24T12:51:18.316Z,40.31
2022-11-24T12:54:23.018Z,40.74
2022-11-24T12:57:29.658Z,40.56
2022-11-24T13:00:38.119Z,40.70
2022-11-24T13:03:46.579Z,40.41
2022-11-24T13:06:53.048Z,40.15
2022-11-24T13:10:34.921Z,40.06
2022-11-24T13:13:57.270Z,40.23
2022-11-24T13:20:26.649Z,40.48
2022-11-24T13:23:30.249Z,40.48
2022-11-24T13:26:44.557Z,40.83
2022-11-24T13:29:47.751Z,40.54
2022-11-24T13:33:01.374Z,40.43
2022-11-24T13:36:31.220Z,40.34
2022-11-24T13:39:50.735Z,40.74
2022-11-24T13:43:08.507Z,40.71
2022-11-24T13:46:11.550Z,40.91
2022-11-24T13:49:21.820Z,40.91
2022-11-24T13:52:43.005Z,41.25
2022-11-24T13:55:54.977Z,41.32
2022-11-24T13:58:58.976Z,41.35
2022-11-24T14:02:01.960Z,41.24
2022-11-24T14:05:06.543Z,41.10
2022-11-24T14:08:17.925Z,41.21
2022-11-24T14:11:21.035Z,41.44
2022-11-24T14:14:24.443Z,41.08
2022-11-24T14:17:28.712Z,41.20
2022-11-24T14:20:33.472Z,41.18
2022-11-24T14:23:42.390Z,41.46
2022-11-24T14:26:47.185Z,40.89
2022-11-24T14:29:54.438Z,41.46
2022-11-24T14:32:57.906Z,41.39
2022-11-24T14:36:03.757Z,41.59
2022-11-24T14:39:07.930Z,41.39
2022-11-24T14:42:19.448Z,41.57
2022-11-24T14:45:29.646Z,41.37
2022-11-24T14:48:36.527Z,41.36
2022-11-24T14:51:46.908Z,41.51
2022-11-24T14:54:53.501Z,40.88
2022-11-24T14:57:56.362Z,40.67
2022-11-24T15:01:18.327Z,40.40
2022-11-24T15:04:46.728Z,40.10
2022-11-24T15:07:49.307Z,40.14
2022-11-24T15:10:56.598Z,40.22
2022-11-24T15:14:02.037Z,40.11
2022-11-24T15:17:06.190Z,40.15
2022-11-24T15:20:12.512Z,39.91
2022-11-24T15:23:24.841Z,39.74
2022-11-24T15:26:39.984Z,39.97
2022-11-24T15:29:47.107Z,40.03
2022-11-24T15:32:51.611Z,39.72
2022-11-24T15:35:54.877Z,39.94
2022-11-24T15:39:02.659Z,40.10
2022-11-24T15:42:06.932Z,40.15
2022-11-24T15:45:13.980Z,40.21
2022-11-24T15:48:18.446Z,40.40
2022-11-24T15:51:23.688Z,40.06
2022-11-24T15:54:32.972Z,40.21
2022-11-24T15:57:38.300Z,40.22
2022-11-24T16:00:43.952Z,40.18
2022-11-24T16:03:49.477Z,39.97
2022-11-24T16:06:59.575Z,39.98
2022-11-24T16:10:08.326Z,40.47
2022-11-24T16:13:12.734Z,39.87
2022-11-24T16:16:16.939Z,39.49
2022-11-24T16:19:21.002Z,39.49
2022-11-24T16:22:25.172Z,39.79
2022-11-24T16:25:33.727Z,39.69
2022-11-24T16:28:39.066Z,39.70
2022-11-24T16:31:43.793Z,39.43
2022-11-24T16:34:56.319Z,39.02
2022-11-24T16:38:00.900Z,39.40
2022-11-24T16:41:08.632Z,39.43
2022-11-24T16:44:11.977Z,39.52
2022-11-24T16:47:17.100Z,39.20
2022-11-24T16:50:20.706Z,39.17
2022-11-24T16:53:24.976Z,39.34
2022-11-24T16:56:30.718Z,39.53
2022-11-24T16:59:38.756Z,39.54
2022-11-24T17:02:42.653Z,39.17
2022-11-24T17:05:46.871Z,39.23
2022-11-24T17:08:55.726Z,38.98
2022-11-24T17:12:01.666Z,39.37
2022-11-24T17:15:31.151Z,39.27
2022-11-24T17:18:36.737Z,39.46
2022-11-24T17:21:42.196Z,39.29
2022-11-24T17:24:50.929Z,38.96
2022-11-24T17:27:56.506Z,39.37
2022-11-24T17:31:01.835Z,39.16
2022-11-24T17:34:08.526Z,39.04
2022-11-24T17:37:13.283Z,39.27
2022-11-24T17:40:29.034Z,39.12
2022-11-24T17:43:41.812Z,39.26
2022-11-24T17:46:47.896Z,39.30
2022-11-24T17:49:52.805Z,39.00
2022-11-24T17:53:04.116Z,39.57
2022-11-24T17:56:10.017Z,39.32
2022-11-24T17:59:18.052Z,39.40
2022-11-24T18:02:26.507Z,39.50
2022-11-24T18:05:32.209Z,39.11
2022-11-24T18:08:42.957Z,38.94
2022-11-24T18:11:48.427Z,39.30
2022-11-24T18:14:54.392Z,38.96
2022-11-24T18:17:59.471Z,39.36
2022-11-24T18:21:05.317Z,39.93
2022-11-24T18:24:13.099Z,39.62
2022-11-24T18:27:17.970Z,39.65
2022-11-24T18:30:27.220Z,39.68
2022-11-24T18:33:34.835Z,39.03
2022-11-24T18:36:41.887Z,39.99
2022-11-24T18:39:47.213Z,39.90
2022-11-24T18:42:59.196Z,39.32
2022-11-24T18:46:11.987Z,39.34
2022-11-24T18:49:15.577Z,38.89
2022-11-24T18:52:22.832Z,39.48
2022-11-24T18:55:26.945Z,40.33
2022-11-24T18:58:31.571Z,41.03
2022-11-24T19:01:39.737Z,41.09
2022-11-24T19:04:46.132Z,41.43
2022-11-24T19:07:49.339Z,41.61
2022-11-24T19:10:55.088Z,41.87
2022-11-24T19:14:00.812Z,42.04
2022-11-24T19:17:09.308Z,42.22
2022-11-24T19:20:14.249Z,42.34
2022-11-24T19:23:18.654Z,42.60
2022-11-24T19:26:21.528Z,42.95
2022-11-24T19:29:25.563Z,44.24
2022-11-24T19:32:32.899Z,44.93
2022-11-24T19:35:38.432Z,44.17
2022-11-24T19:38:44.347Z,45.02
2022-11-24T19:41:50.624Z,46.21
2022-11-24T19:44:56.875Z,45.66
2022-11-24T19:48:02.247Z,45.07
2022-11-24T19:51:08.613Z,45.03
2022-11-24T19:54:16.112Z,45.66
2022-11-24T19:57:22.270Z,45.35
2022-11-24T20:00:30.703Z,45.11
2022-11-24T20:03:37.757Z,44.99
2022-11-24T20:06:42.510Z,44.99
2022-11-24T20:09:47.335Z,44.65
2022-11-24T20:12:55.106Z,43.94
2022-11-24T20:16:06.195Z,43.40
2022-11-24T20:19:15.760Z,43.39
2022-11-24T20:22:18.923Z,43.52
2022-11-24T20:25:22.929Z,43.41
2022-11-24T20:28:25.802Z,43.12
2022-11-24T20:31:32.673Z,43.18
2022-11-24T20:34:37.813Z,43.03
2022-11-24T20:37:43.147Z,42.95
2022-11-24T20:40:47.468Z,43.35
2022-11-24T20:43:50.993Z,42.83
2022-11-24T20:47:00.341Z,42.38
2022-11-24T20:50:11.605Z,42.78
2022-11-24T20:53:17.988Z,42.84
2022-11-24T20:56:21.828Z,42.75
2022-11-24T20:59:28.424Z,42.63
2022-11-24T21:02:31.952Z,42.48
2022-11-24T21:05:39.570Z,42.61
2022-11-24T21:08:43.325Z,42.25
2022-11-24T21:11:46.262Z,42.11
2022-11-24T21:14:49.237Z,42.37
2022-11-24T21:17:52.082Z,42.11
2022-11-24T21:20:56.274Z,42.22
2022-11-24T21:23:59.353Z,42.40
2022-11-24T21:27:02.161Z,42.18
2022-11-24T21:30:05.883Z,42.29
2022-11-24T21:33:09.176Z,42.08
2022-11-24T21:36:14.810Z,41.98
2022-11-24T21:39:18.598Z,42.15
2022-11-24T21:42:22.668Z,42.21
2022-11-24T21:45:25.492Z,42.13
2022-11-24T21:48:29.566Z,41.98
2022-11-24T21:51:33.716Z,42.15
2022-11-24T21:54:36.865Z,41.99
2022-11-24T21:57:39.751Z,41.91
2022-11-24T22:00:42.545Z,41.82
2022-11-24T22:03:45.852Z,41.85
2022-11-24T22:06:50.085Z,41.93
2022-11-24T22:09:52.786Z,41.99
2022-11-24T22:12:55.539Z,41.77
2022-11-24T22:16:05.184Z,41.74
2022-11-24T22:19:08.947Z,41.56
2022-11-24T22:22:13.150Z,41.51
2022-11-24T22:25:15.857Z,41.65
2022-11-24T22:28:18.646Z,41.19
2022-11-24T22:31:22.563Z,41.68
2022-11-24T22:34:25.346Z,41.47
2022-11-24T22:37:29.519Z,41.32
2022-11-24T22:40:32.225Z,42.22
2022-11-24T22:43:35.639Z,41.67
2022-11-24T22:46:38.501Z,41.57
2022-11-24T22:49:41.215Z,41.82
2022-11-24T22:52:45.411Z,41.46
2022-11-24T22:55:48.170Z,41.23
2022-11-24T22:58:51.169Z,41.89
2022-11-24T23:01:53.924Z,41.82
2022-11-24T23:04:56.741Z,41.89
2022-11-24T23:08:00.840Z,41.75
2022-11-24T23:11:04.240Z,41.55
2022-11-24T23:14:07.767Z,42.19
2022-11-24T23:17:10.534Z,41.65
2022-11-24T23:20:14.133Z,41.64
2022-11-24T23:23:18.271Z,41.78
2022-11-24T23:26:21.811Z,41.65
2022-11-24T23:29:24.704Z,41.58
2022-11-24T23:32:27.396Z,41.70
2022-11-24T23:35:30.207Z,41.59
2022-11-24T23:38:34.072Z,41.34
2022-11-24T23:41:38.247Z,41.90
2022-11-24T23:44:40.995Z,41.71
2022-11-24T23:47:43.736Z,41.62
2022-11-24T23:50:46.506Z,41.63
2022-11-24T23:53:49.452Z,41.54
2022-11-24T23:56:53.597Z,41.61
2022-11-24T23:59:56.380Z,41.54
